This is the latest recevied weather packets stored in our database for station/object SM2FXT-13. If no packets are shown the sender has not sent any weather packets the latest 10 day(s).
| Time | Temp. | Humidity | Pressure | Rain* | Wind** | Luminosity | Snow |
|---|---|---|---|---|---|---|---|
| 1778326203 | 18.33° C | 41% | 1020.7 hPa | 0 mm | - | - | - |
| 1778325603 | 17.78° C | 43% | 1020.8 hPa | 0 mm | - | - | - |
| 1778318402 | 17.78° C | 43% | 1021.7 hPa | 0 mm | - | - | - |
| 1778315403 | 16.11° C | 47% | 1022.1 hPa | 0 mm | - | - | - |
| 1778314203 | 15° C | 49% | 1022 hPa | 0 mm | - | - | - |
| 1778312403 | 13.33° C | 55% | 1022.3 hPa | 0 mm | - | - | - |
| 1778311203 | 12.22° C | 57% | 1022.4 hPa | 0 mm | - | - | - |
| 1778310004 | 11.11° C | 60% | 1022.4 hPa | 0 mm | - | - | - |
| 1778306403 | 10.56° C | 61% | 1023.1 hPa | 0 mm | - | - | - |
| 1778298603 | 8.33° C | 68% | 1023.2 hPa | 0 mm | - | - | - |
| 1778296803 | 6.67° C | 74% | 1023.8 hPa | 0 mm | - | - | - |
| 1778293804 | 5.56° C | 67% | 1023.9 hPa | 0 mm | - | - | - |
| 1778291403 | 6.11° C | 55% | 1024.3 hPa | 0 mm | - | - | - |
| 1778290804 | 5.56° C | 59% | 1024.4 hPa | 0 mm | - | - | - |
| 1778287803 | 3.89° C | 58% | 1024.7 hPa | 0 mm | - | - | - |
| 1778283003 | 7.22° C | 45% | 1025.1 hPa | 0 mm | - | - | - |
| 1778280002 | 8.33° C | 40% | 1025.2 hPa | 0 mm | - | - | - |
| 1778278202 | 8.89° C | 40% | 1025.1 hPa | 0 mm | - | - | - |
| 1778275803 | 8.89° C | 40% | 1024.9 hPa | 0 mm | - | - | - |
| 1778273403 | 9.44° C | 41% | 1024.7 hPa | 0 mm | - | - | - |
| 1778272802 | 9.44° C | 40% | 1024.8 hPa | 0 mm | - | - | - |
| 1778270403 | 10° C | 43% | 1024.3 hPa | 0 mm | - | - | - |
| 1778262602 | 13.33° C | 36% | 1023.3 hPa | 0 mm | - | - | - |
| 1778259603 | 15° C | 32% | 1022.9 hPa | 0 mm | - | - | - |
| 1778259003 | 15° C | 29% | 1023 hPa | 0 mm | - | - | - |
* Rain latest hour (hover to see other rain measurements)
** Current wind speed in m/s (hover to see current wind gust speed)